createdAt,value
2022-09-02T00:00:58.297Z,0.40
2022-09-02T00:03:24.946Z,0.40
2022-09-02T00:05:51.528Z,0.20
2022-09-02T00:08:18.009Z,0.30
2022-09-02T00:10:44.463Z,0.30
2022-09-02T00:13:10.954Z,0.57
2022-09-02T00:15:37.427Z,0.20
2022-09-02T00:18:03.906Z,0.20
2022-09-02T00:20:30.393Z,0.30
2022-09-02T00:22:56.864Z,0.40
2022-09-02T00:25:23.327Z,0.40
2022-09-02T00:27:49.788Z,0.40
2022-09-02T00:30:16.252Z,0.30
2022-09-02T00:32:42.712Z,0.30
2022-09-02T00:35:09.185Z,0.40
2022-09-02T00:37:35.653Z,0.45
2022-09-02T00:40:02.126Z,0.20
2022-09-02T00:42:28.589Z,0.50
2022-09-02T00:44:55.052Z,0.40
2022-09-02T00:47:21.516Z,0.40
2022-09-02T00:49:47.989Z,0.40
2022-09-02T00:52:14.450Z,0.32
2022-09-02T00:54:40.933Z,0.30
2022-09-02T00:57:07.401Z,0.30
2022-09-02T00:59:33.874Z,0.40
2022-09-02T01:02:00.491Z,0.50
2022-09-02T01:04:27.059Z,0.40
2022-09-02T01:06:53.521Z,0.30
2022-09-02T01:09:19.993Z,0.30
2022-09-02T01:11:46.457Z,0.50
2022-09-02T01:14:12.940Z,0.40
2022-09-02T01:16:39.466Z,0.22
2022-09-02T01:19:08.592Z,0.30
2022-09-02T01:21:37.910Z,0.35
2022-09-02T01:24:04.382Z,0.20
2022-09-02T01:26:30.852Z,0.15
2022-09-02T01:28:57.332Z,0.20
2022-09-02T01:31:23.842Z,0.20
2022-09-02T01:33:50.361Z,0.30
2022-09-02T01:36:17.189Z,0.32
2022-09-02T01:38:43.649Z,0.38
2022-09-02T01:41:10.128Z,0.38
2022-09-02T01:43:36.593Z,0.40
2022-09-02T01:46:03.062Z,0.47
2022-09-02T01:48:29.528Z,0.32
2022-09-02T01:50:56.003Z,0.50
2022-09-02T01:53:22.515Z,0.50
2022-09-02T01:55:49.099Z,0.50
2022-09-02T01:58:15.575Z,0.40
2022-09-02T02:00:42.077Z,0.40
2022-09-02T02:03:08.571Z,0.40
2022-09-02T02:05:35.077Z,0.40
2022-09-02T02:08:01.539Z,0.43
2022-09-02T02:10:28.012Z,0.55
2022-09-02T02:12:54.479Z,0.45
2022-09-02T02:15:20.949Z,0.47
2022-09-02T02:17:47.414Z,0.30
2022-09-02T02:20:13.887Z,0.32
2022-09-02T02:22:40.436Z,0.20
2022-09-02T02:25:06.918Z,0.45
2022-09-02T02:27:33.371Z,0.52
2022-09-02T02:29:59.844Z,0.50
2022-09-02T02:32:26.308Z,0.55
2022-09-02T02:34:52.772Z,0.43
2022-09-02T02:37:23.372Z,0.40
2022-09-02T02:39:51.794Z,0.22
2022-09-02T02:42:18.263Z,0.55
2022-09-02T02:44:44.729Z,0.20
2022-09-02T02:47:11.201Z,0.40
2022-09-02T02:49:37.661Z,0.40
2022-09-02T02:52:04.168Z,0.50
2022-09-02T02:54:34.846Z,0.30
2022-09-02T02:57:01.837Z,0.40
2022-09-02T02:59:29.760Z,0.30
2022-09-02T03:01:56.341Z,0.40
2022-09-02T03:04:22.904Z,0.40
2022-09-02T03:06:49.372Z,0.40
2022-09-02T03:09:15.834Z,0.40
2022-09-02T03:11:42.309Z,0.20
2022-09-02T03:14:08.773Z,0.40
2022-09-02T03:16:35.333Z,0.30
2022-09-02T03:19:01.859Z,0.43
2022-09-02T03:21:28.329Z,0.30
2022-09-02T03:24:02.647Z,0.40
2022-09-02T03:26:29.124Z,0.20
2022-09-02T03:28:55.583Z,0.30
2022-09-02T03:31:22.136Z,0.40
2022-09-02T03:33:48.623Z,0.25
2022-09-02T03:36:15.091Z,0.40
2022-09-02T03:38:41.549Z,0.55
2022-09-02T03:41:08.011Z,0.30
2022-09-02T03:43:34.476Z,0.40
2022-09-02T03:46:00.993Z,0.40
2022-09-02T03:48:27.496Z,0.30
2022-09-02T03:50:53.945Z,0.43
2022-09-02T03:53:20.614Z,0.30
2022-09-02T03:55:47.117Z,0.35
2022-09-02T03:58:15.873Z,0.40
2022-09-02T04:00:42.958Z,0.32
2022-09-02T04:03:09.477Z,0.30
2022-09-02T04:05:35.987Z,0.50
2022-09-02T04:08:02.450Z,0.50
2022-09-02T04:10:28.899Z,0.60
2022-09-02T04:12:55.371Z,0.68
2022-09-02T04:15:21.840Z,0.50
2022-09-02T04:17:48.306Z,0.20
2022-09-02T04:20:14.761Z,0.30
2022-09-02T04:22:41.232Z,0.32
2022-09-02T04:25:07.686Z,0.22
2022-09-02T04:27:34.164Z,0.30
2022-09-02T04:30:00.628Z,0.38
2022-09-02T04:32:27.100Z,0.50
2022-09-02T04:34:53.568Z,0.35
2022-09-02T04:37:20.037Z,0.45
2022-09-02T04:39:46.504Z,0.40
2022-09-02T04:42:12.982Z,0.20
2022-09-02T04:44:39.442Z,0.28
2022-09-02T04:47:05.921Z,0.20
2022-09-02T04:49:32.377Z,0.40
2022-09-02T04:51:58.853Z,0.50
2022-09-02T04:54:25.325Z,0.25
2022-09-02T04:56:51.789Z,0.50
2022-09-02T04:59:18.267Z,0.30
2022-09-02T05:01:44.954Z,0.32
2022-09-02T05:04:11.534Z,0.25
2022-09-02T05:06:42.004Z,0.30
2022-09-02T05:09:10.701Z,0.30
2022-09-02T05:11:37.160Z,0.50
2022-09-02T05:14:03.629Z,0.40
2022-09-02T05:16:30.088Z,0.22
2022-09-02T05:18:56.574Z,0.32
2022-09-02T05:21:23.043Z,0.35
2022-09-02T05:23:49.522Z,0.52
2022-09-02T05:26:15.972Z,0.28
2022-09-02T05:28:42.448Z,0.30
2022-09-02T05:31:08.991Z,0.30
2022-09-02T05:33:35.535Z,0.35
2022-09-02T05:36:02.013Z,0.40
2022-09-02T05:38:28.489Z,0.50
2022-09-02T05:40:55.066Z,0.30
2022-09-02T05:43:21.569Z,0.40
2022-09-02T05:45:48.086Z,0.40
2022-09-02T05:48:14.603Z,0.52
2022-09-02T05:50:41.070Z,0.30
2022-09-02T05:53:12.300Z,0.20
2022-09-02T05:55:40.748Z,0.68
2022-09-02T05:58:07.224Z,0.52
2022-09-02T06:00:33.686Z,0.30
2022-09-02T06:03:00.195Z,0.40
2022-09-02T06:05:26.720Z,0.40
2022-09-02T06:07:53.194Z,0.30
2022-09-02T06:10:19.669Z,0.32
2022-09-02T06:12:46.125Z,0.50
2022-09-02T06:15:12.623Z,0.40
2022-09-02T06:17:39.071Z,0.40
2022-09-02T06:20:05.541Z,0.47
2022-09-02T06:22:31.991Z,0.57
2022-09-02T06:24:58.464Z,0.47
2022-09-02T06:27:24.928Z,0.50
2022-09-02T06:29:51.405Z,0.50
2022-09-02T06:32:17.856Z,0.55
2022-09-02T06:34:44.340Z,0.40
2022-09-02T06:37:10.799Z,0.52
2022-09-02T06:39:37.261Z,0.68
2022-09-02T06:42:03.740Z,0.50
2022-09-02T06:44:32.582Z,0.60
2022-09-02T06:46:59.263Z,0.70
2022-09-02T06:49:25.747Z,0.70
2022-09-02T06:51:52.214Z,0.50
2022-09-02T06:54:18.675Z,0.70
2022-09-02T06:56:49.425Z,0.63
2022-09-02T06:59:16.319Z,0.68
2022-09-02T07:01:42.904Z,0.43
2022-09-02T07:04:09.532Z,0.45
2022-09-02T07:06:36.006Z,0.38
2022-09-02T07:09:02.463Z,0.50
2022-09-02T07:11:28.936Z,0.55
2022-09-02T07:13:55.392Z,0.90
2022-09-02T07:16:25.954Z,0.60
2022-09-02T07:21:20.229Z,0.55
2022-09-02T07:23:46.686Z,0.45
2022-09-02T07:26:13.160Z,0.47
2022-09-02T07:28:39.623Z,0.50
2022-09-02T07:31:06.149Z,0.30
2022-09-02T07:33:32.675Z,0.80
2022-09-02T07:35:59.158Z,0.63
2022-09-02T07:38:25.618Z,0.68
2022-09-02T07:40:56.965Z,0.57
2022-09-02T07:43:23.867Z,0.68
2022-09-02T07:45:50.584Z,0.70
2022-09-02T07:48:17.087Z,0.80
2022-09-02T07:50:43.539Z,0.90
2022-09-02T07:53:10.009Z,0.68
2022-09-02T07:55:36.474Z,0.77
2022-09-02T07:58:02.954Z,0.82
2022-09-02T08:00:29.417Z,0.95
2022-09-02T08:02:56.020Z,0.60
2022-09-02T08:05:22.555Z,0.70
2022-09-02T08:07:49.023Z,0.63
2022-09-02T08:10:15.486Z,0.60
2022-09-02T08:12:41.961Z,0.93
2022-09-02T08:15:08.424Z,0.80
2022-09-02T08:17:35.252Z,0.70
2022-09-02T08:20:02.045Z,0.75
2022-09-02T08:22:28.560Z,0.80
2022-09-02T08:24:55.059Z,0.70
2022-09-02T08:27:21.533Z,0.80
2022-09-02T08:29:47.994Z,0.60
2022-09-02T08:32:14.503Z,0.80
2022-09-02T08:34:41.049Z,0.90
2022-09-02T08:37:07.555Z,0.75
2022-09-02T08:39:34.028Z,0.93
2022-09-02T08:44:27.902Z,0.75
2022-09-02T08:46:54.375Z,0.60
2022-09-02T08:49:20.838Z,0.52
2022-09-02T08:51:47.321Z,0.50
2022-09-02T08:54:17.452Z,0.70
2022-09-02T08:56:43.915Z,0.68
2022-09-02T08:59:10.389Z,0.90
2022-09-02T09:01:36.893Z,0.60
2022-09-02T09:04:03.410Z,0.80
2022-09-02T09:06:29.877Z,0.60
2022-09-02T09:08:56.349Z,0.35
2022-09-02T09:11:22.816Z,0.60
2022-09-02T09:13:49.285Z,0.50
2022-09-02T09:16:15.821Z,0.50
2022-09-02T09:18:42.369Z,0.50
2022-09-02T09:21:10.364Z,1.02
2022-09-02T09:23:37.641Z,0.70
2022-09-02T09:26:04.103Z,0.80
2022-09-02T09:28:30.567Z,0.57
2022-09-02T09:30:57.045Z,0.75
2022-09-02T09:33:23.611Z,0.55
2022-09-02T09:35:50.165Z,0.80
2022-09-02T09:38:16.633Z,0.73
2022-09-02T09:40:43.145Z,0.60
2022-09-02T09:43:14.598Z,0.70
2022-09-02T09:45:42.240Z,1.40
2022-09-02T09:48:08.750Z,0.80
2022-09-02T09:50:35.221Z,0.68
2022-09-02T09:53:01.684Z,0.80
2022-09-02T09:55:28.159Z,1.17
2022-09-02T09:57:54.620Z,0.60
2022-09-02T10:00:21.110Z,0.45
2022-09-02T10:02:47.563Z,0.90
2022-09-02T10:05:14.018Z,1.10
2022-09-02T10:07:40.496Z,0.90
2022-09-02T10:10:06.966Z,0.70
2022-09-02T10:12:33.449Z,0.80
2022-09-02T10:14:59.912Z,0.73
2022-09-02T10:17:26.389Z,1.20
2022-09-02T10:19:52.853Z,1.35
2022-09-02T10:22:19.328Z,1.05
2022-09-02T10:24:45.791Z,0.98
2022-09-02T10:27:12.268Z,1.00
2022-09-02T10:29:38.732Z,1.00
2022-09-02T10:32:05.209Z,1.10
2022-09-02T10:34:31.693Z,1.30
2022-09-02T10:36:58.170Z,1.20
2022-09-02T10:39:24.624Z,1.25
2022-09-02T10:41:51.085Z,1.10
2022-09-02T10:44:17.566Z,1.15
2022-09-02T10:46:44.063Z,1.33
2022-09-02T10:49:10.581Z,1.17
2022-09-02T10:51:37.029Z,1.20
2022-09-02T10:54:03.491Z,1.20
2022-09-02T10:56:29.953Z,1.52
2022-09-02T10:58:56.464Z,1.30
2022-09-02T11:01:23.002Z,1.20
2022-09-02T11:03:49.884Z,0.95
2022-09-02T11:06:16.494Z,0.95
2022-09-02T11:08:42.960Z,1.00
2022-09-02T11:11:09.434Z,0.90
2022-09-02T11:13:35.912Z,1.17
2022-09-02T11:16:02.456Z,1.20
2022-09-02T11:18:28.981Z,1.45
2022-09-02T11:20:55.470Z,1.05
2022-09-02T11:23:22.191Z,1.10
2022-09-02T11:25:49.321Z,1.30
2022-09-02T11:28:15.888Z,0.80
2022-09-02T11:30:42.508Z,1.10
2022-09-02T11:33:09.352Z,1.27
2022-09-02T11:35:35.815Z,1.10
2022-09-02T11:38:02.273Z,0.93
2022-09-02T11:40:34.810Z,1.50
2022-09-02T11:43:01.709Z,1.30
2022-09-02T11:45:28.373Z,0.90
2022-09-02T11:47:54.934Z,0.90
2022-09-02T11:50:21.383Z,0.90
2022-09-02T11:52:47.852Z,0.63
2022-09-02T11:55:14.316Z,0.73
2022-09-02T11:57:40.897Z,0.82
2022-09-02T12:00:07.358Z,1.10
2022-09-02T12:02:33.901Z,1.10
2022-09-02T12:05:01.773Z,1.20
2022-09-02T12:07:34.025Z,1.00
2022-09-02T12:10:00.772Z,1.10
2022-09-02T12:12:27.320Z,1.17
2022-09-02T12:14:53.789Z,1.10
2022-09-02T12:17:20.245Z,1.15
2022-09-02T12:19:46.726Z,1.05
2022-09-02T12:22:13.192Z,1.20
2022-09-02T12:24:39.659Z,1.20
2022-09-02T12:27:06.178Z,0.70
2022-09-02T12:29:32.662Z,1.17
2022-09-02T12:31:59.287Z,0.80
2022-09-02T12:34:25.750Z,1.08
2022-09-02T12:36:52.333Z,1.00
2022-09-02T12:39:18.832Z,1.30
2022-09-02T12:41:45.292Z,1.20
2022-09-02T12:44:11.760Z,0.98
2022-09-02T12:46:40.677Z,1.20
2022-09-02T12:49:07.182Z,1.10
2022-09-02T12:51:33.639Z,0.70
2022-09-02T12:54:02.498Z,0.65
2022-09-02T12:56:28.961Z,0.93
2022-09-02T12:59:00.164Z,1.17
2022-09-02T13:01:29.103Z,1.65
2022-09-02T13:03:55.717Z,1.40
2022-09-02T13:06:22.175Z,1.20
2022-09-02T13:08:48.639Z,1.45
2022-09-02T13:11:15.108Z,1.20
2022-09-02T13:13:41.569Z,1.40
2022-09-02T13:16:08.177Z,1.40
2022-09-02T13:18:44.888Z,1.15
2022-09-02T13:21:11.356Z,1.35
2022-09-02T13:23:37.815Z,1.05
2022-09-02T13:26:04.288Z,1.40
2022-09-02T13:28:30.748Z,1.30
2022-09-02T13:30:57.302Z,1.02
2022-09-02T13:33:23.917Z,1.30
2022-09-02T13:35:50.514Z,1.38
2022-09-02T13:38:18.632Z,1.20
2022-09-02T13:40:47.440Z,1.05
2022-09-02T13:43:13.920Z,1.10
2022-09-02T13:45:40.390Z,1.08
2022-09-02T13:48:06.863Z,1.27
2022-09-02T13:50:33.333Z,0.95
2022-09-02T13:55:46.259Z,1.33
2022-09-02T13:58:12.746Z,1.05
2022-09-02T14:00:39.276Z,0.98
2022-09-02T14:03:05.925Z,0.90
2022-09-02T14:05:32.457Z,0.80
2022-09-02T14:07:59.303Z,0.60
2022-09-02T14:10:25.771Z,1.15
2022-09-02T14:12:52.246Z,1.40
2022-09-02T14:15:18.708Z,1.55
2022-09-02T14:17:45.192Z,1.00
2022-09-02T14:20:11.657Z,1.10
2022-09-02T14:22:38.139Z,1.15
2022-09-02T14:25:04.604Z,1.17
2022-09-02T14:27:31.068Z,1.17
2022-09-02T14:29:57.537Z,0.88
2022-09-02T14:32:24.022Z,1.05
2022-09-02T14:34:50.499Z,0.88
2022-09-02T14:37:16.960Z,0.80
2022-09-02T14:39:43.484Z,0.68
2022-09-02T14:42:09.959Z,0.70
2022-09-02T14:44:36.455Z,0.77
2022-09-02T14:47:02.924Z,1.10
2022-09-02T14:49:29.404Z,1.20
2022-09-02T14:51:55.870Z,0.80
2022-09-02T14:54:22.351Z,1.20
2022-09-02T14:56:48.813Z,1.30
2022-09-02T14:59:15.286Z,1.30
2022-09-02T15:01:41.757Z,1.25
2022-09-02T15:04:08.330Z,1.30
2022-09-02T15:06:34.989Z,1.20
2022-09-02T15:09:01.667Z,1.17
2022-09-02T15:11:28.130Z,1.02
2022-09-02T15:13:54.610Z,1.42
2022-09-02T15:16:21.069Z,1.20
2022-09-02T15:18:47.536Z,1.20
2022-09-02T15:21:14.016Z,1.05
2022-09-02T15:23:41.120Z,1.10
2022-09-02T15:26:07.801Z,1.25
2022-09-02T15:28:34.269Z,1.35
2022-09-02T15:31:00.828Z,1.00
2022-09-02T15:33:27.341Z,1.38
2022-09-02T15:35:53.813Z,1.23
2022-09-02T15:38:20.274Z,1.30
2022-09-02T15:40:46.749Z,1.30
2022-09-02T15:43:13.208Z,1.23
2022-09-02T15:45:39.679Z,1.30
2022-09-02T15:48:06.139Z,1.20
2022-09-02T15:50:32.609Z,1.40
2022-09-02T15:53:00.799Z,1.10
2022-09-02T15:55:29.223Z,1.50
2022-09-02T15:57:56.039Z,1.30
2022-09-02T16:00:22.512Z,0.90
2022-09-02T16:02:49.053Z,1.30
2022-09-02T16:05:15.547Z,1.00
2022-09-02T16:07:42.000Z,0.88
2022-09-02T16:10:08.477Z,1.30
2022-09-02T16:15:10.255Z,1.00
2022-09-02T16:17:36.707Z,1.10
2022-09-02T16:20:03.169Z,1.30
2022-09-02T16:22:29.632Z,1.20
2022-09-02T16:24:56.091Z,1.30
2022-09-02T16:27:22.560Z,1.05
2022-09-02T16:29:49.049Z,1.00
2022-09-02T16:32:27.283Z,0.98
2022-09-02T16:34:54.390Z,0.80
2022-09-02T16:37:20.866Z,1.10
2022-09-02T16:39:47.404Z,0.80
2022-09-02T16:42:13.961Z,1.10
2022-09-02T16:44:40.420Z,1.38
2022-09-02T16:47:06.902Z,1.05
2022-09-02T16:49:33.364Z,1.00
2022-09-02T16:51:59.850Z,1.35
2022-09-02T16:54:30.715Z,1.50
2022-09-02T16:56:58.402Z,1.20
2022-09-02T16:59:24.870Z,1.02
2022-09-02T17:01:51.401Z,1.10
2022-09-02T17:04:17.931Z,1.15
2022-09-02T17:06:44.390Z,1.20
2022-09-02T17:09:10.866Z,1.20
2022-09-02T17:11:37.321Z,1.00
2022-09-02T17:14:03.797Z,1.20
2022-09-02T17:16:30.324Z,1.30
2022-09-02T17:18:56.800Z,0.98
2022-09-02T17:21:23.274Z,1.17
2022-09-02T17:23:49.744Z,0.90
2022-09-02T17:26:16.222Z,1.10
2022-09-02T17:28:43.758Z,1.00
2022-09-02T17:31:10.303Z,0.93
2022-09-02T17:33:36.806Z,0.70
2022-09-02T17:36:03.273Z,0.82
2022-09-02T17:38:29.738Z,0.90
2022-09-02T17:40:56.214Z,0.95
2022-09-02T17:43:22.742Z,1.00
2022-09-02T17:45:49.366Z,0.65
2022-09-02T17:48:36.993Z,0.70
2022-09-02T17:51:02.317Z,0.70
2022-09-02T17:53:29.045Z,0.80
2022-09-02T17:55:55.517Z,0.65
2022-09-02T17:58:22.000Z,0.60
2022-09-02T18:00:48.543Z,0.70
2022-09-02T18:03:18.115Z,0.70
2022-09-02T18:05:46.811Z,0.63
2022-09-02T18:08:13.271Z,0.70
2022-09-02T18:10:39.748Z,0.80
2022-09-02T18:13:06.229Z,0.50
2022-09-02T18:15:32.705Z,0.90
2022-09-02T18:17:59.175Z,0.60
2022-09-02T18:20:25.632Z,0.85
2022-09-02T18:22:52.097Z,0.90
2022-09-02T18:25:18.558Z,0.90
2022-09-02T18:27:45.032Z,0.80
2022-09-02T18:30:11.494Z,0.80
2022-09-02T18:32:37.969Z,0.90
2022-09-02T18:35:04.439Z,0.70
2022-09-02T18:37:30.925Z,0.70
2022-09-02T18:40:02.032Z,0.85
2022-09-02T18:42:29.246Z,0.60
2022-09-02T18:44:55.724Z,1.00
2022-09-02T18:47:22.195Z,1.00
2022-09-02T18:49:48.669Z,0.98
2022-09-02T18:52:15.134Z,0.80
2022-09-02T18:54:41.602Z,0.57
2022-09-02T18:57:08.070Z,0.80
2022-09-02T18:59:34.539Z,0.90
2022-09-02T19:02:01.116Z,0.70
2022-09-02T19:04:29.506Z,1.00
2022-09-02T19:06:56.113Z,0.70
2022-09-02T19:09:22.580Z,0.70
2022-09-02T19:11:49.038Z,0.90
2022-09-02T19:14:15.521Z,0.60
2022-09-02T19:16:42.051Z,0.70
2022-09-02T19:19:08.551Z,1.00
2022-09-02T19:21:35.022Z,0.82
2022-09-02T19:24:01.482Z,1.00
2022-09-02T19:26:27.949Z,0.98
2022-09-02T19:28:54.402Z,1.08
2022-09-02T19:31:20.966Z,0.90
2022-09-02T19:33:47.471Z,1.05
2022-09-02T19:36:13.946Z,1.10
2022-09-02T19:38:40.405Z,1.27
2022-09-02T19:41:06.889Z,1.20
2022-09-02T19:43:33.344Z,1.20
2022-09-02T19:45:59.969Z,1.45
2022-09-02T19:48:26.486Z,1.33
2022-09-02T19:50:52.957Z,1.42
2022-09-02T19:53:19.420Z,1.45
2022-09-02T19:55:45.903Z,1.70
2022-09-02T19:58:12.366Z,1.30
2022-09-02T20:00:38.873Z,1.20
2022-09-02T20:03:05.356Z,1.30
2022-09-02T20:05:31.820Z,1.35
2022-09-02T20:07:58.291Z,1.30
2022-09-02T20:10:27.936Z,1.08
2022-09-02T20:12:56.336Z,1.30
2022-09-02T20:15:22.801Z,1.20
2022-09-02T20:17:49.278Z,1.23
2022-09-02T20:20:15.737Z,1.30
2022-09-02T20:22:42.217Z,1.23
2022-09-02T20:25:08.676Z,1.17
2022-09-02T20:27:35.143Z,1.45
2022-09-02T20:30:01.602Z,1.20
2022-09-02T20:32:28.076Z,1.30
2022-09-02T20:34:54.540Z,1.10
2022-09-02T20:37:21.014Z,1.10
2022-09-02T20:39:47.643Z,1.63
2022-09-02T20:42:14.291Z,1.40
2022-09-02T20:44:40.756Z,1.20
2022-09-02T20:47:07.265Z,1.40
2022-09-02T20:49:33.783Z,1.38
2022-09-02T20:52:00.532Z,1.42
2022-09-02T20:54:27.751Z,0.98
2022-09-02T20:56:54.203Z,1.50
2022-09-02T20:59:20.667Z,1.23
2022-09-02T21:01:47.189Z,1.48
2022-09-02T21:04:13.717Z,1.15
2022-09-02T21:06:40.175Z,1.20
2022-09-02T21:09:06.649Z,1.40
2022-09-02T21:11:33.125Z,1.10
2022-09-02T21:13:59.594Z,1.33
2022-09-02T21:16:26.088Z,1.30
2022-09-02T21:18:52.564Z,1.25
2022-09-02T21:21:19.026Z,1.20
2022-09-02T21:23:45.480Z,1.10
2022-09-02T21:26:11.958Z,1.23
2022-09-02T21:28:38.429Z,0.90
2022-09-02T21:31:04.998Z,1.00
2022-09-02T21:33:31.493Z,0.90
2022-09-02T21:35:57.969Z,0.93
2022-09-02T21:38:24.553Z,1.10
2022-09-02T21:40:51.160Z,0.80
2022-09-02T21:43:17.631Z,1.02
2022-09-02T21:45:44.112Z,0.90
2022-09-02T21:48:10.568Z,0.80
2022-09-02T21:50:37.033Z,0.90
2022-09-02T21:53:03.486Z,0.70
2022-09-02T21:55:29.964Z,0.70
2022-09-02T21:57:59.297Z,0.70
2022-09-02T22:00:25.804Z,0.52
2022-09-02T22:02:52.284Z,0.93
2022-09-02T22:05:18.760Z,1.00
2022-09-02T22:07:45.224Z,1.00
2022-09-02T22:10:11.686Z,0.60
2022-09-02T22:12:38.159Z,0.60
2022-09-02T22:15:04.609Z,0.90
2022-09-02T22:17:31.095Z,0.80
2022-09-02T22:19:57.544Z,0.93
2022-09-02T22:22:24.013Z,0.70
2022-09-02T22:24:50.481Z,0.70
2022-09-02T22:27:16.954Z,0.75
2022-09-02T22:29:43.414Z,1.30
2022-09-02T22:32:09.895Z,0.98
2022-09-02T22:34:36.361Z,0.90
2022-09-02T22:37:02.826Z,0.73
2022-09-02T22:39:32.389Z,1.05
2022-09-02T22:41:58.867Z,0.90
2022-09-02T22:44:25.340Z,0.88
2022-09-02T22:46:51.846Z,0.95
2022-09-02T22:49:18.356Z,1.10
2022-09-02T22:51:44.817Z,1.00
2022-09-02T22:54:11.296Z,1.02
2022-09-02T22:56:37.757Z,1.00
2022-09-02T22:59:04.237Z,1.20
2022-09-02T23:01:30.746Z,1.00
2022-09-02T23:03:57.271Z,1.13
2022-09-02T23:06:23.731Z,1.00
2022-09-02T23:08:50.217Z,0.93
2022-09-02T23:11:16.676Z,0.90
2022-09-02T23:13:43.142Z,1.10
2022-09-02T23:16:09.687Z,1.00
2022-09-02T23:18:36.173Z,1.00
2022-09-02T23:21:02.643Z,1.05
2022-09-02T23:23:29.094Z,1.00
2022-09-02T23:25:55.556Z,1.00
2022-09-02T23:28:22.045Z,0.90
2022-09-02T23:30:49.097Z,0.90
2022-09-02T23:33:15.704Z,1.10
2022-09-02T23:35:42.177Z,1.10
2022-09-02T23:38:08.635Z,1.10
2022-09-02T23:40:35.111Z,0.80
2022-09-02T23:43:01.572Z,0.98
2022-09-02T23:45:28.062Z,0.90
2022-09-02T23:47:54.531Z,1.10
2022-09-02T23:50:20.996Z,1.23
2022-09-02T23:52:47.466Z,1.00
2022-09-02T23:55:13.931Z,0.90
2022-09-02T23:57:40.406Z,0.80
